createdAt,value
2022-09-14T00:00:13.025Z,1002.71
2022-09-14T00:01:25.192Z,1002.70
2022-09-14T00:02:13.048Z,1002.70
2022-09-14T00:03:12.944Z,1002.70
2022-09-14T00:04:12.871Z,1002.68
2022-09-14T00:05:12.831Z,1002.66
2022-09-14T00:06:12.796Z,1002.66
2022-09-14T00:07:12.771Z,1002.66
2022-09-14T00:08:12.719Z,1002.66
2022-09-14T00:09:12.682Z,1002.61
2022-09-14T00:10:12.645Z,1002.58
2022-09-14T00:11:12.606Z,1002.59
2022-09-14T00:12:12.575Z,1002.51
2022-09-14T00:13:12.544Z,1002.51
2022-09-14T00:14:12.497Z,1002.52
2022-09-14T00:15:12.459Z,1002.52
2022-09-14T00:16:12.432Z,1002.54
2022-09-14T00:17:12.383Z,1002.53
2022-09-14T00:18:12.348Z,1002.55
2022-09-14T00:19:12.319Z,1002.53
2022-09-14T00:20:12.272Z,1002.54
2022-09-14T00:21:12.234Z,1002.47
2022-09-14T00:22:12.201Z,1002.46
2022-09-14T00:23:12.159Z,1002.43
2022-09-14T00:24:12.132Z,1002.38
2022-09-14T00:25:12.085Z,1002.35
2022-09-14T00:26:12.049Z,1002.35
2022-09-14T00:27:12.010Z,1002.35
2022-09-14T00:28:11.974Z,1002.32
2022-09-14T00:29:11.935Z,1002.33
2022-09-14T00:30:11.910Z,1002.27
2022-09-14T00:31:11.859Z,1002.23
2022-09-14T00:32:11.963Z,1002.20
2022-09-14T00:33:11.784Z,1002.18
2022-09-14T00:34:11.752Z,1002.20
2022-09-14T00:35:11.717Z,1002.19
2022-09-14T00:36:11.673Z,1002.18
2022-09-14T00:37:11.633Z,1002.10
2022-09-14T00:38:11.597Z,1002.11
2022-09-14T00:39:11.565Z,1002.04
2022-09-14T00:40:11.656Z,1002.01
2022-09-14T00:41:11.494Z,1001.95
2022-09-14T00:42:11.448Z,1001.91
2022-09-14T00:43:11.408Z,1001.89
2022-09-14T00:44:11.380Z,1001.85
2022-09-14T00:45:11.334Z,1001.84
2022-09-14T00:46:11.343Z,1001.80
2022-09-14T00:47:11.282Z,1001.79
2022-09-14T00:48:11.223Z,1001.80
2022-09-14T00:49:11.185Z,1001.77
2022-09-14T00:50:11.145Z,1001.75
2022-09-14T00:51:11.107Z,1001.70
2022-09-14T00:52:11.071Z,1001.73
2022-09-14T00:53:11.044Z,1001.65
2022-09-14T00:54:10.996Z,1001.67
2022-09-14T00:55:10.956Z,1001.68
2022-09-14T00:56:10.920Z,1001.71
2022-09-14T00:57:10.880Z,1001.69
2022-09-14T00:58:10.847Z,1001.69
2022-09-14T00:59:10.819Z,1001.71
2022-09-14T01:00:10.770Z,1001.70
2022-09-14T01:01:10.814Z,1001.72
2022-09-14T01:02:10.733Z,1001.72
2022-09-14T01:03:10.656Z,1001.66
2022-09-14T01:04:10.618Z,1001.65
2022-09-14T01:05:10.587Z,1001.61
2022-09-14T01:06:10.556Z,1001.64
2022-09-14T01:07:10.503Z,1001.65
2022-09-14T01:08:10.468Z,1001.63
2022-09-14T01:09:10.430Z,1001.66
2022-09-14T01:10:10.392Z,1001.70
2022-09-14T01:11:10.353Z,1001.68
2022-09-14T01:12:10.332Z,1001.72
2022-09-14T01:13:10.277Z,1001.74
2022-09-14T01:14:10.238Z,1001.65
2022-09-14T01:15:10.203Z,1001.66
2022-09-14T01:16:10.241Z,1001.67
2022-09-14T01:17:10.127Z,1001.64
2022-09-14T01:18:10.102Z,1001.61
2022-09-14T01:19:10.052Z,1001.56
2022-09-14T01:20:10.017Z,1001.56
2022-09-14T01:21:09.977Z,1001.52
2022-09-14T01:22:09.941Z,1001.53
2022-09-14T01:23:09.917Z,1001.52
2022-09-14T01:24:09.865Z,1001.54
2022-09-14T01:25:09.827Z,1001.55
2022-09-14T01:26:09.791Z,1001.61
2022-09-14T01:27:09.787Z,1001.63
2022-09-14T01:28:09.729Z,1001.67
2022-09-14T01:29:09.675Z,1001.68
2022-09-14T01:30:09.640Z,1001.71
2022-09-14T01:31:09.705Z,1001.69
2022-09-14T01:32:09.564Z,1001.67
2022-09-14T01:33:09.522Z,1001.66
2022-09-14T01:34:09.499Z,1001.64
2022-09-14T01:35:12.083Z,1001.58
2022-09-14T01:36:09.413Z,1001.57
2022-09-14T01:37:09.376Z,1001.58
2022-09-14T01:38:09.338Z,1001.56
2022-09-14T01:39:09.300Z,1001.54
2022-09-14T01:40:09.313Z,1001.55
2022-09-14T01:41:09.228Z,1001.56
2022-09-14T01:42:09.187Z,1001.57
2022-09-14T01:43:09.148Z,1001.55
2022-09-14T01:44:09.119Z,1001.56
2022-09-14T01:45:09.071Z,1001.57
2022-09-14T01:46:09.141Z,1001.57
2022-09-14T01:47:08.996Z,1001.58
2022-09-14T01:48:08.958Z,1001.57
2022-09-14T01:49:08.925Z,1001.59
2022-09-14T01:50:08.885Z,1001.63
2022-09-14T01:51:08.845Z,1001.62
2022-09-14T01:52:08.824Z,1001.63
2022-09-14T01:53:08.793Z,1001.64
2022-09-14T01:54:08.737Z,1001.68
2022-09-14T01:55:08.695Z,1001.64
2022-09-14T01:56:08.658Z,1001.70
2022-09-14T01:57:08.621Z,1001.70
2022-09-14T01:58:08.595Z,1001.75
2022-09-14T01:59:08.555Z,1001.81
2022-09-14T02:00:08.507Z,1001.79
2022-09-14T02:01:08.498Z,1001.81
2022-09-14T02:02:08.498Z,1001.81
2022-09-14T02:03:08.393Z,1001.84
2022-09-14T02:04:08.375Z,1001.82
2022-09-14T02:05:08.321Z,1001.87
2022-09-14T02:06:08.285Z,1001.87
2022-09-14T02:07:08.253Z,1001.88
2022-09-14T02:08:08.208Z,1001.87
2022-09-14T02:09:08.166Z,1001.86
2022-09-14T02:10:08.151Z,1001.87
2022-09-14T02:11:08.092Z,1001.87
2022-09-14T02:12:08.054Z,1001.87
2022-09-14T02:13:08.029Z,1001.91
2022-09-14T02:14:07.982Z,1001.85
2022-09-14T02:15:07.945Z,1001.87
2022-09-14T02:16:07.957Z,1001.82
2022-09-14T02:17:07.866Z,1001.81
2022-09-14T02:18:07.830Z,1001.83
2022-09-14T02:19:07.800Z,1001.77
2022-09-14T02:20:07.756Z,1001.76
2022-09-14T02:21:07.718Z,1001.76
2022-09-14T02:22:07.689Z,1001.80
2022-09-14T02:23:07.641Z,1001.80
2022-09-14T02:24:07.604Z,1001.82
2022-09-14T02:25:07.584Z,1001.83
2022-09-14T02:26:07.529Z,1001.83
2022-09-14T02:27:07.489Z,1001.86
2022-09-14T02:28:07.456Z,1001.83
2022-09-14T02:29:07.418Z,1001.81
2022-09-14T02:30:07.385Z,1001.82
2022-09-14T02:31:07.370Z,1001.83
2022-09-14T02:32:07.304Z,1001.83
2022-09-14T02:33:07.273Z,1001.83
2022-09-14T02:34:07.229Z,1001.82
2022-09-14T02:35:07.189Z,1001.80
2022-09-14T02:36:07.194Z,1001.78
2022-09-14T02:37:07.124Z,1001.76
2022-09-14T02:38:07.078Z,1001.78
2022-09-14T02:39:07.040Z,1001.75
2022-09-14T02:40:07.061Z,1001.76
2022-09-14T02:41:06.967Z,1001.75
2022-09-14T02:42:06.956Z,1001.74
2022-09-14T02:43:06.900Z,1001.71
2022-09-14T02:44:06.863Z,1001.69
2022-09-14T02:45:06.937Z,1001.67
2022-09-14T02:46:07.584Z,1001.62
2022-09-14T02:47:06.822Z,1001.63
2022-09-14T02:48:06.701Z,1001.59
2022-09-14T02:49:06.677Z,1001.58
2022-09-14T02:50:06.627Z,1001.51
2022-09-14T02:51:06.587Z,1001.50
2022-09-14T02:52:06.548Z,1001.46
2022-09-14T02:53:06.511Z,1001.45
2022-09-14T02:54:06.499Z,1001.41
2022-09-14T02:55:06.507Z,1001.41
2022-09-14T02:56:06.404Z,1001.38
2022-09-14T02:57:06.362Z,1001.39
2022-09-14T02:58:06.326Z,1001.37
2022-09-14T02:59:06.289Z,1001.36
2022-09-14T03:00:06.338Z,1001.39
2022-09-14T03:01:06.282Z,1001.40
2022-09-14T03:02:06.240Z,1001.37
2022-09-14T03:03:06.136Z,1001.36
2022-09-14T03:04:06.098Z,1001.32
2022-09-14T03:05:06.058Z,1001.26
2022-09-14T03:06:06.023Z,1001.24
2022-09-14T03:07:05.999Z,1001.20
2022-09-14T03:08:06.011Z,1001.18
2022-09-14T03:09:05.909Z,1001.15
2022-09-14T03:10:05.871Z,1001.18
2022-09-14T03:11:05.835Z,1001.17
2022-09-14T03:12:05.793Z,1001.18
2022-09-14T03:13:05.771Z,1001.15
2022-09-14T03:14:05.722Z,1001.16
2022-09-14T03:15:05.687Z,1001.13
2022-09-14T03:16:05.693Z,1001.12
2022-09-14T03:17:05.605Z,1001.11
2022-09-14T03:18:05.565Z,1001.07
2022-09-14T03:19:05.537Z,1001.08
2022-09-14T03:20:05.490Z,1001.05
2022-09-14T03:21:05.449Z,1001.05
2022-09-14T03:22:05.415Z,1001.02
2022-09-14T03:23:05.373Z,1001.06
2022-09-14T03:24:05.374Z,1001.03
2022-09-14T03:25:05.297Z,1001.01
2022-09-14T03:26:05.262Z,1001.02
2022-09-14T03:27:05.223Z,1000.97
2022-09-14T03:28:05.183Z,1000.99
2022-09-14T03:29:05.159Z,1000.94
2022-09-14T03:30:05.109Z,1000.93
2022-09-14T03:31:05.105Z,1000.94
2022-09-14T03:32:05.050Z,1000.88
2022-09-14T03:33:04.992Z,1000.86
2022-09-14T03:34:04.956Z,1000.81
2022-09-14T03:35:04.929Z,1000.82
2022-09-14T03:36:04.880Z,1000.82
2022-09-14T03:37:04.843Z,1000.82
2022-09-14T03:38:04.802Z,1000.81
2022-09-14T03:39:04.766Z,1000.79
2022-09-14T03:40:04.770Z,1000.82
2022-09-14T03:41:04.702Z,1000.84
2022-09-14T03:42:04.662Z,1000.82
2022-09-14T03:43:04.632Z,1000.78
2022-09-14T03:44:04.572Z,1000.81
2022-09-14T03:45:04.533Z,1000.79
2022-09-14T03:46:04.555Z,1000.84
2022-09-14T03:47:04.458Z,1000.81
2022-09-14T03:48:04.419Z,1000.86
2022-09-14T03:49:04.388Z,1000.81
2022-09-14T03:50:04.341Z,1000.85
2022-09-14T03:51:04.302Z,1000.83
2022-09-14T03:52:04.278Z,1000.80
2022-09-14T03:53:04.227Z,1000.76
2022-09-14T03:54:04.190Z,1000.77
2022-09-14T03:55:04.151Z,1000.74
2022-09-14T03:56:04.112Z,1000.75
2022-09-14T03:57:04.075Z,1000.76
2022-09-14T03:58:04.048Z,1000.73
2022-09-14T03:59:03.995Z,1000.74
2022-09-14T04:00:03.957Z,1000.74
2022-09-14T04:01:03.923Z,1000.75
2022-09-14T04:02:03.905Z,1000.73
2022-09-14T04:03:03.915Z,1000.73
2022-09-14T04:04:03.805Z,1000.77
2022-09-14T04:05:03.765Z,1000.73
2022-09-14T04:06:03.733Z,1000.76
2022-09-14T04:07:03.690Z,1000.75
2022-09-14T04:08:03.651Z,1000.77
2022-09-14T04:09:03.623Z,1000.76
2022-09-14T04:10:03.575Z,1000.74
2022-09-14T04:11:03.535Z,1000.75
2022-09-14T04:12:03.508Z,1000.72
2022-09-14T04:13:03.459Z,1000.73
2022-09-14T04:14:03.419Z,1000.70
2022-09-14T04:15:03.394Z,1000.75
2022-09-14T04:16:03.380Z,1000.72
2022-09-14T04:17:03.306Z,1000.78
2022-09-14T04:18:03.266Z,1000.74
2022-09-14T04:19:03.231Z,1000.74
2022-09-14T04:20:03.188Z,1000.74
2022-09-14T04:21:07.887Z,1000.73
2022-09-14T04:22:03.114Z,1000.71
2022-09-14T04:23:03.073Z,1000.70
2022-09-14T04:24:14.584Z,1000.68
2022-09-14T04:25:02.999Z,1000.69
2022-09-14T04:26:02.958Z,1000.73
2022-09-14T04:27:02.935Z,1000.69
2022-09-14T04:28:19.817Z,1000.69
2022-09-14T04:29:02.850Z,1000.68
2022-09-14T04:30:02.810Z,1000.71
2022-09-14T04:31:02.846Z,1000.68
2022-09-14T04:32:02.739Z,1000.72
2022-09-14T04:33:02.702Z,1000.69
2022-09-14T04:34:02.652Z,1000.68
2022-09-14T04:35:02.613Z,1000.67
2022-09-14T04:36:02.576Z,1000.69
2022-09-14T04:37:02.537Z,1000.66
2022-09-14T04:38:02.508Z,1000.71
2022-09-14T04:39:02.460Z,1000.64
2022-09-14T04:40:02.494Z,1000.69
2022-09-14T04:41:02.383Z,1000.69
2022-09-14T04:42:02.345Z,1000.68
2022-09-14T04:43:02.306Z,1000.68
2022-09-14T04:44:02.279Z,1000.70
2022-09-14T04:45:02.229Z,1000.68
2022-09-14T04:46:02.238Z,1000.68
2022-09-14T04:47:02.194Z,1000.69
2022-09-14T04:48:02.119Z,1000.68
2022-09-14T04:49:02.096Z,1000.68
2022-09-14T04:50:02.054Z,1000.71
2022-09-14T04:51:02.005Z,1000.68
2022-09-14T04:52:01.960Z,1000.71
2022-09-14T04:53:01.927Z,1000.71
2022-09-14T04:54:01.885Z,1000.69
2022-09-14T04:55:01.876Z,1000.71
2022-09-14T04:56:01.820Z,1000.73
2022-09-14T04:57:01.804Z,1000.72
2022-09-14T04:58:01.731Z,1000.68
2022-09-14T04:59:01.697Z,1000.69
2022-09-14T05:00:01.722Z,1000.67
2022-09-14T05:01:01.631Z,1000.71
2022-09-14T05:02:01.707Z,1000.68
2022-09-14T05:03:01.602Z,1000.67
2022-09-14T05:04:01.505Z,1000.70
2022-09-14T05:05:01.465Z,1000.71
2022-09-14T05:06:01.429Z,1000.69
2022-09-14T05:07:01.389Z,1000.73
2022-09-14T05:08:01.362Z,1000.68
2022-09-14T05:09:01.315Z,1000.68
2022-09-14T05:10:01.274Z,1000.68
2022-09-14T05:11:01.238Z,1000.65
2022-09-14T05:12:01.197Z,1000.66
2022-09-14T05:13:01.162Z,1000.64
2022-09-14T05:14:01.142Z,1000.64
2022-09-14T05:15:01.087Z,1000.62
2022-09-14T05:16:01.075Z,1000.63
2022-09-14T05:17:01.006Z,1000.60
2022-09-14T05:18:00.990Z,1000.62
2022-09-14T05:19:00.938Z,1000.65
2022-09-14T05:20:00.905Z,1000.66
2022-09-14T05:21:03.986Z,1000.58
2022-09-14T05:22:00.816Z,1000.61
2022-09-14T05:23:00.779Z,1000.59
2022-09-14T05:24:00.741Z,1000.59
2022-09-14T05:25:00.703Z,1000.58
2022-09-14T05:26:00.684Z,1000.60
2022-09-14T05:27:02.327Z,1000.64
2022-09-14T05:28:00.585Z,1000.59
2022-09-14T05:29:00.554Z,1000.57
2022-09-14T05:30:00.510Z,1000.57
2022-09-14T05:31:00.522Z,1000.57
2022-09-14T05:32:00.445Z,1000.62
2022-09-14T05:33:00.396Z,1000.58
2022-09-14T05:34:00.355Z,1000.58
2022-09-14T05:35:00.318Z,1000.58
2022-09-14T05:36:00.280Z,1000.56
2022-09-14T05:37:00.257Z,1000.54
2022-09-14T05:38:00.207Z,1000.50
2022-09-14T05:39:00.168Z,1000.49
2022-09-14T05:40:00.301Z,1000.46
2022-09-14T05:41:00.087Z,1000.51
2022-09-14T05:42:00.060Z,1000.51
2022-09-14T05:43:00.024Z,1000.51
2022-09-14T05:43:59.989Z,1000.49
2022-09-14T05:44:59.939Z,1000.50
2022-09-14T05:45:59.910Z,1000.49
2022-09-14T05:46:59.858Z,1000.51
2022-09-14T05:47:59.820Z,1000.52
2022-09-14T05:48:59.783Z,1000.55
2022-09-14T05:49:59.755Z,1000.50
2022-09-14T05:50:59.702Z,1000.52
2022-09-14T05:51:59.675Z,1000.52
2022-09-14T05:52:59.626Z,1000.53
2022-09-14T05:53:59.665Z,1000.52
2022-09-14T05:54:59.550Z,1000.52
2022-09-14T05:55:59.510Z,1000.53
2022-09-14T05:56:59.483Z,1000.52
2022-09-14T05:57:59.432Z,1000.49
2022-09-14T05:58:59.394Z,1000.55
2022-09-14T05:59:59.357Z,1000.51
2022-09-14T06:00:59.320Z,1000.54
2022-09-14T06:01:59.313Z,1000.53
2022-09-14T06:02:59.253Z,1000.55
2022-09-14T06:03:59.223Z,1000.50
2022-09-14T06:04:59.209Z,1000.53
2022-09-14T06:05:59.128Z,1000.55
2022-09-14T06:07:17.556Z,1000.55
2022-09-14T06:07:59.046Z,1000.54
2022-09-14T06:08:59.026Z,1000.60
2022-09-14T06:09:58.970Z,1000.55
2022-09-14T06:10:58.931Z,1000.57
2022-09-14T06:11:58.896Z,1000.61
2022-09-14T06:12:58.853Z,1000.55
2022-09-14T06:13:58.817Z,1000.59
2022-09-14T06:14:58.787Z,1000.58
2022-09-14T06:15:58.739Z,1000.62
2022-09-14T06:16:58.713Z,1000.61
2022-09-14T06:17:58.660Z,1000.64
2022-09-14T06:18:58.620Z,1000.61
2022-09-14T06:20:03.514Z,1000.64
2022-09-14T06:20:58.549Z,1000.63
2022-09-14T06:21:58.504Z,1000.60
2022-09-14T06:22:58.481Z,1000.64
2022-09-14T06:23:58.436Z,1000.64
2022-09-14T06:24:58.389Z,1000.63
2022-09-14T06:25:58.349Z,1000.65
2022-09-14T06:26:58.314Z,1000.61
2022-09-14T06:27:58.280Z,1000.58
2022-09-14T06:28:58.251Z,1000.60
2022-09-14T06:29:58.197Z,1000.58
2022-09-14T06:30:58.158Z,1000.63
2022-09-14T06:31:58.118Z,1000.63
2022-09-14T06:32:58.087Z,1000.65
2022-09-14T06:33:58.040Z,1000.66
2022-09-14T06:34:58.042Z,1000.63
2022-09-14T06:35:57.965Z,1000.69
2022-09-14T06:36:57.923Z,1000.64
2022-09-14T06:37:57.887Z,1000.65
2022-09-14T06:38:57.846Z,1000.64
2022-09-14T06:39:58.070Z,1000.70
2022-09-14T06:40:57.773Z,1000.68
2022-09-14T06:41:57.732Z,1000.64
2022-09-14T06:42:57.695Z,1000.62
2022-09-14T06:43:57.657Z,1000.67
2022-09-14T06:44:57.617Z,1000.66
2022-09-14T06:45:57.634Z,1000.64
2022-09-14T06:46:57.537Z,1000.59
2022-09-14T06:47:57.497Z,1000.62
2022-09-14T06:48:57.467Z,1000.60
2022-09-14T06:49:57.422Z,1000.61
2022-09-14T06:50:57.389Z,1000.63
2022-09-14T06:51:57.494Z,1000.62
2022-09-14T06:52:57.306Z,1000.61
2022-09-14T06:53:57.268Z,1000.62
2022-09-14T06:54:57.230Z,1000.61
2022-09-14T06:55:57.188Z,1000.60
2022-09-14T06:56:57.160Z,1000.62
2022-09-14T06:57:57.115Z,1000.61
2022-09-14T06:58:57.074Z,1000.65
2022-09-14T06:59:57.036Z,1000.65
2022-09-14T07:00:57.000Z,1000.63
2022-09-14T07:01:56.969Z,1000.61
2022-09-14T07:02:56.953Z,1000.63
2022-09-14T07:03:56.893Z,1000.72
2022-09-14T07:04:56.842Z,1000.65
2022-09-14T07:05:56.804Z,1000.67
2022-09-14T07:06:56.769Z,1000.68
2022-09-14T07:07:56.724Z,1000.67
2022-09-14T07:08:56.697Z,1000.64
2022-09-14T07:09:56.646Z,1000.66
2022-09-14T07:10:56.610Z,1000.62
2022-09-14T07:11:56.571Z,1000.65
2022-09-14T07:12:56.533Z,1000.63
2022-09-14T07:13:56.494Z,1000.65
2022-09-14T07:14:56.471Z,1000.66
2022-09-14T07:15:56.421Z,1000.68
2022-09-14T07:16:56.378Z,1000.65
2022-09-14T07:17:56.340Z,1000.66
2022-09-14T07:18:56.302Z,1000.65
2022-09-14T07:19:56.260Z,1000.67
2022-09-14T07:20:56.233Z,1000.67
2022-09-14T07:21:56.184Z,1000.65
2022-09-14T07:22:56.145Z,1000.65
2022-09-14T07:23:56.105Z,1000.64
2022-09-14T07:24:56.068Z,1000.65
2022-09-14T07:25:56.042Z,1000.62
2022-09-14T07:26:55.993Z,1000.65
2022-09-14T07:27:55.951Z,1000.65
2022-09-14T07:28:55.914Z,1000.65
2022-09-14T07:29:55.876Z,1000.63
2022-09-14T07:30:58.941Z,1000.65
2022-09-14T07:31:55.809Z,1000.68
2022-09-14T07:32:55.759Z,1000.63
2022-09-14T07:33:55.720Z,1000.61
2022-09-14T07:34:55.682Z,1000.62
2022-09-14T07:35:55.656Z,1000.62
2022-09-14T07:36:55.604Z,1000.61
2022-09-14T07:37:55.565Z,1000.62
2022-09-14T07:38:55.527Z,1000.64
2022-09-14T07:39:55.553Z,1000.62
2022-09-14T07:40:55.449Z,1000.60
2022-09-14T07:41:55.496Z,1000.57
2022-09-14T07:42:57.571Z,1000.62
2022-09-14T07:43:55.343Z,1000.65
2022-09-14T07:44:55.302Z,1000.63
2022-09-14T07:45:55.371Z,1000.64
2022-09-14T07:46:55.218Z,1000.56
2022-09-14T07:47:55.176Z,1000.57
2022-09-14T07:48:55.142Z,1000.60
2022-09-14T07:49:55.157Z,1000.68
2022-09-14T07:50:55.063Z,1000.64
2022-09-14T07:51:55.030Z,1000.65
2022-09-14T07:52:54.986Z,1000.63
2022-09-14T07:53:54.965Z,1000.64
2022-09-14T07:54:54.925Z,1000.67
2022-09-14T07:55:54.868Z,1000.63
2022-09-14T07:56:54.828Z,1000.64
2022-09-14T07:59:42.289Z,1000.60
2022-09-14T08:00:26.809Z,1000.61
2022-09-14T08:01:26.778Z,1000.65
2022-09-14T08:02:26.761Z,1000.62
2022-09-14T08:03:26.688Z,1000.60
2022-09-14T08:04:26.642Z,1000.56
2022-09-14T08:05:26.600Z,1000.58
2022-09-14T08:06:27.472Z,1000.57
2022-09-14T08:07:26.529Z,1000.53
2022-09-14T08:08:26.486Z,1000.56
2022-09-14T08:09:26.444Z,1000.55
2022-09-14T08:10:26.406Z,1000.54
2022-09-14T08:11:26.370Z,1000.58
2022-09-14T08:12:26.329Z,1000.56
2022-09-14T08:13:26.303Z,1000.55
2022-09-14T08:14:26.250Z,1000.54
2022-09-14T08:15:28.533Z,1000.54
2022-09-14T08:16:26.221Z,1000.47
2022-09-14T08:17:26.135Z,1000.51
2022-09-14T08:18:26.097Z,1000.52
2022-09-14T08:19:26.072Z,1000.48
2022-09-14T08:20:26.034Z,1000.50
2022-09-14T08:21:25.984Z,1000.47
2022-09-14T08:22:25.944Z,1000.47
2022-09-14T08:23:25.906Z,1000.49
2022-09-14T08:24:25.868Z,1000.47
2022-09-14T08:25:25.841Z,1000.44
2022-09-14T08:26:25.789Z,1000.49
2022-09-14T08:27:25.751Z,1000.48
2022-09-14T08:28:25.716Z,1000.45
2022-09-14T08:29:25.678Z,1000.41
2022-09-14T08:30:25.637Z,1000.44
2022-09-14T08:31:25.658Z,1000.46
2022-09-14T08:32:25.566Z,1000.42
2022-09-14T08:33:25.523Z,1000.43
2022-09-14T08:34:25.482Z,1000.44
2022-09-14T08:35:46.803Z,1000.40
2022-09-14T08:36:25.415Z,1000.42
2022-09-14T08:37:25.377Z,1000.41
2022-09-14T08:38:25.338Z,1000.40
2022-09-14T08:39:25.294Z,1000.41
2022-09-14T08:40:25.352Z,1000.40
2022-09-14T08:41:25.214Z,1000.41
2022-09-14T08:42:25.189Z,1000.41
2022-09-14T08:43:25.149Z,1000.39
2022-09-14T08:44:25.098Z,1000.39
2022-09-14T08:45:25.104Z,1000.39
2022-09-14T08:46:25.024Z,1000.37
2022-09-14T08:47:24.984Z,1000.36
2022-09-14T08:48:24.958Z,1000.37
2022-09-14T08:49:24.905Z,1000.33
2022-09-14T08:50:24.868Z,1000.35
2022-09-14T08:51:24.831Z,1000.40
2022-09-14T08:52:24.792Z,1000.34
2022-09-14T08:53:24.752Z,1000.35
2022-09-14T08:54:24.725Z,1000.37
2022-09-14T08:55:24.679Z,1000.36
2022-09-14T08:56:24.643Z,1000.35
2022-09-14T08:57:24.603Z,1000.34
2022-09-14T08:58:24.563Z,1000.44
2022-09-14T08:59:24.588Z,1000.36
2022-09-14T09:00:24.514Z,1000.34
2022-09-14T09:01:24.533Z,1000.38
2022-09-14T09:02:24.406Z,1000.36
2022-09-14T09:03:24.503Z,1000.36
2022-09-14T09:04:24.422Z,1000.40
2022-09-14T09:05:24.292Z,1000.37
2022-09-14T09:06:24.267Z,1000.39
2022-09-14T09:07:24.214Z,1000.37
2022-09-14T09:08:24.778Z,1000.37
2022-09-14T09:09:24.143Z,1000.40
2022-09-14T09:10:24.112Z,1000.33
2022-09-14T09:11:24.076Z,1000.38
2022-09-14T09:12:24.046Z,1000.37
2022-09-14T09:13:23.985Z,1000.37
2022-09-14T09:14:23.948Z,1000.40
2022-09-14T09:15:23.908Z,1000.37
2022-09-14T09:16:23.934Z,1000.42
2022-09-14T09:17:23.845Z,1000.41
2022-09-14T09:18:23.796Z,1000.43
2022-09-14T09:19:27.899Z,1000.42
2022-09-14T09:20:23.718Z,1000.43
2022-09-14T09:21:23.677Z,1000.41
2022-09-14T09:22:23.640Z,1000.40
2022-09-14T09:23:23.613Z,1000.44
2022-09-14T09:24:23.565Z,1000.42
2022-09-14T09:25:23.534Z,1000.44
2022-09-14T09:26:23.486Z,1000.41
2022-09-14T09:27:23.445Z,1000.44
2022-09-14T09:28:23.420Z,1000.48
2022-09-14T09:29:23.368Z,1000.48
2022-09-14T09:30:23.330Z,1000.48
2022-09-14T09:31:23.386Z,1000.50
2022-09-14T09:32:23.255Z,1000.52
2022-09-14T09:33:23.229Z,1000.56
2022-09-14T09:34:23.176Z,1000.59
2022-09-14T09:35:23.138Z,1000.60
2022-09-14T09:36:23.103Z,1000.61
2022-09-14T09:37:23.066Z,1000.64
2022-09-14T09:38:23.024Z,1000.67
2022-09-14T09:39:22.996Z,1000.70
2022-09-14T09:40:23.006Z,1000.66
2022-09-14T09:41:22.906Z,1000.70
2022-09-14T09:42:22.900Z,1000.67
2022-09-14T09:43:38.947Z,1000.67
2022-09-14T09:44:22.804Z,1000.64
2022-09-14T09:45:22.767Z,1000.61
2022-09-14T09:46:22.787Z,1000.57
2022-09-14T09:47:22.682Z,1000.53
2022-09-14T09:48:22.643Z,1000.48
2022-09-14T09:49:22.605Z,1000.46
2022-09-14T09:50:22.574Z,1000.43
2022-09-14T09:51:24.153Z,1000.44
2022-09-14T09:52:22.490Z,1000.42
2022-09-14T09:53:22.454Z,1000.41
2022-09-14T09:54:22.419Z,1000.43
2022-09-14T09:55:22.376Z,1000.49
2022-09-14T09:56:22.353Z,1000.47
2022-09-14T09:57:22.300Z,1000.47
2022-09-14T09:58:22.262Z,1000.52
2022-09-14T09:59:22.226Z,1000.55
2022-09-14T10:00:22.188Z,1000.53
2022-09-14T10:01:22.192Z,1000.56
2022-09-14T10:02:22.181Z,1000.55
2022-09-14T10:03:22.073Z,1000.58
2022-09-14T10:04:22.035Z,1000.55
2022-09-14T10:05:21.998Z,1000.56
2022-09-14T10:06:21.969Z,1000.51
2022-09-14T10:07:21.929Z,1000.54
2022-09-14T10:08:21.886Z,1000.49
2022-09-14T10:09:21.849Z,1000.52
2022-09-14T10:10:21.807Z,1000.49
2022-09-14T10:11:21.769Z,1000.49
2022-09-14T10:12:21.744Z,1000.48
2022-09-14T10:13:21.692Z,1000.50
2022-09-14T10:14:21.657Z,1000.49
2022-09-14T10:15:21.625Z,1000.49
2022-09-14T10:16:21.624Z,1000.46
2022-09-14T10:17:21.540Z,1000.44
2022-09-14T10:18:21.520Z,1000.43
2022-09-14T10:19:21.464Z,1000.45
2022-09-14T10:20:21.425Z,1000.44
2022-09-14T10:21:21.389Z,1000.45
2022-09-14T10:22:25.799Z,1000.47
2022-09-14T10:23:21.309Z,1000.45
2022-09-14T10:24:21.284Z,1000.42
2022-09-14T10:25:21.238Z,1000.45
2022-09-14T10:26:21.200Z,1000.45
2022-09-14T10:27:21.161Z,1000.46
2022-09-14T10:28:21.132Z,1000.41
2022-09-14T10:29:21.083Z,1000.40
2022-09-14T10:30:21.070Z,1000.41
2022-09-14T10:31:21.062Z,1000.40
2022-09-14T10:32:20.971Z,1000.41
2022-09-14T10:33:20.929Z,1000.41
2022-09-14T10:34:20.891Z,1000.43
2022-09-14T10:35:20.861Z,1000.40
2022-09-14T10:36:20.832Z,1000.40
2022-09-14T10:37:20.781Z,1000.40
2022-09-14T10:38:20.740Z,1000.37
2022-09-14T10:39:25.376Z,1000.37
2022-09-14T10:40:20.719Z,1000.39
2022-09-14T10:41:20.642Z,1000.40
2022-09-14T10:42:20.591Z,1000.42
2022-09-14T10:43:20.552Z,1000.40
2022-09-14T10:44:20.516Z,1000.39
2022-09-14T10:45:20.475Z,1000.37
2022-09-14T10:46:20.483Z,1000.38
2022-09-14T10:47:20.398Z,1000.36
2022-09-14T10:48:20.365Z,1000.36
2022-09-14T10:49:20.323Z,1000.33
2022-09-14T10:50:20.286Z,1000.32
2022-09-14T10:51:20.246Z,1000.30
2022-09-14T10:52:20.223Z,1000.31
2022-09-14T10:53:20.179Z,1000.28
2022-09-14T10:54:20.133Z,1000.27
2022-09-14T10:55:20.099Z,1000.24
2022-09-14T10:56:20.058Z,1000.25
2022-09-14T10:57:20.032Z,1000.25
2022-09-14T10:58:23.820Z,1000.24
2022-09-14T10:59:19.946Z,1000.26
2022-09-14T11:00:19.910Z,1000.23
2022-09-14T11:01:19.927Z,1000.29
2022-09-14T11:02:19.956Z,1000.24
2022-09-14T11:03:19.809Z,1000.26
2022-09-14T11:04:19.761Z,1000.29
2022-09-14T11:05:19.719Z,1000.26
2022-09-14T11:06:19.681Z,1000.26
2022-09-14T11:07:19.643Z,1000.21
2022-09-14T11:08:19.621Z,1000.22
2022-09-14T11:09:19.566Z,1000.22
2022-09-14T11:10:19.537Z,1000.26
2022-09-14T11:11:19.491Z,1000.24
2022-09-14T11:12:19.454Z,1000.22
2022-09-14T11:13:19.417Z,1000.25
2022-09-14T11:14:19.390Z,1000.25
2022-09-14T11:15:19.336Z,1000.24
2022-09-14T11:16:19.349Z,1000.25
2022-09-14T11:17:19.261Z,1000.23
2022-09-14T11:18:19.226Z,1000.18
2022-09-14T11:19:19.185Z,1000.14
2022-09-14T11:20:19.158Z,1000.08
2022-09-14T11:21:19.117Z,1000.03
2022-09-14T11:22:19.072Z,1000.03
2022-09-14T11:23:19.103Z,1000.05
2022-09-14T11:24:18.995Z,1000.00
2022-09-14T11:25:18.970Z,1000.04
2022-09-14T11:26:18.923Z,1000.02
2022-09-14T11:27:18.882Z,1000.05
2022-09-14T11:28:18.845Z,1000.01
2022-09-14T11:29:18.805Z,1000.03
2022-09-14T11:30:18.780Z,1000.00
2022-09-14T11:31:18.831Z,1000.03
2022-09-14T11:32:21.389Z,1000.03
2022-09-14T11:33:18.655Z,1000.03
2022-09-14T11:34:18.620Z,1000.04
2022-09-14T11:35:18.597Z,1000.01
2022-09-14T11:36:18.547Z,1000.00
2022-09-14T11:37:18.501Z,1000.02
2022-09-14T11:38:18.471Z,1000.04
2022-09-14T11:39:18.422Z,1000.01
2022-09-14T11:40:18.444Z,1000.03
2022-09-14T11:41:18.363Z,1000.01
2022-09-14T11:42:18.316Z,1000.03
2022-09-14T11:43:18.282Z,1000.05
2022-09-14T11:44:18.241Z,1000.01
2022-09-14T11:45:18.205Z,1000.06
2022-09-14T11:46:18.258Z,1000.04
2022-09-14T11:47:18.137Z,1000.03
2022-09-14T11:48:41.925Z,1000.01
2022-09-14T11:49:18.049Z,1000.07
2022-09-14T11:50:18.013Z,1000.11
2022-09-14T11:51:17.977Z,1000.08
2022-09-14T11:52:17.938Z,1000.08
2022-09-14T11:53:17.948Z,1000.03
2022-09-14T11:54:17.868Z,1000.07
2022-09-14T11:55:17.855Z,1000.05
2022-09-14T11:56:17.786Z,1000.05
2022-09-14T11:57:17.768Z,1000.05
2022-09-14T11:58:17.710Z,1000.02
2022-09-14T11:59:17.678Z,1000.05
2022-09-14T12:00:17.636Z,1000.07
2022-09-14T12:01:17.599Z,1000.13
2022-09-14T12:02:17.596Z,1000.13
2022-09-14T12:03:17.612Z,1000.13
2022-09-14T12:04:17.623Z,1000.10
2022-09-14T12:05:17.449Z,1000.11
2022-09-14T12:06:17.410Z,1000.12